sensor_id;sensor_type;location;lat;lon;timestamp;P1;durP1;ratioP1;P2;durP2;ratioP2
50681;SDS011;36779;52.168;20.878;2023-04-15T00:01:13;7.80;;;4.80;;
50681;SDS011;36779;52.168;20.878;2023-04-15T00:03:49;8.60;;;5.20;;
50681;SDS011;36779;52.168;20.878;2023-04-15T00:06:25;9.20;;;4.60;;
50681;SDS011;36779;52.168;20.878;2023-04-15T00:08:57;8.90;;;5.00;;
50681;SDS011;36779;52.168;20.878;2023-04-15T00:11:30;7.00;;;3.70;;
50681;SDS011;36779;52.168;20.878;2023-04-15T00:14:02;8.80;;;5.00;;
50681;SDS011;36779;52.168;20.878;2023-04-15T00:16:35;8.60;;;5.20;;
50681;SDS011;36779;52.168;20.878;2023-04-15T00:19:07;11.40;;;5.80;;
50681;SDS011;36779;52.168;20.878;2023-04-15T00:21:40;12.70;;;5.40;;
50681;SDS011;36779;52.168;20.878;2023-04-15T00:24:12;11.00;;;5.20;;
50681;SDS011;36779;52.168;20.878;2023-04-15T00:26:45;10.50;;;5.50;;
50681;SDS011;36779;52.168;20.878;2023-04-15T00:29:17;9.30;;;5.10;;
50681;SDS011;36779;52.168;20.878;2023-04-15T00:31:49;10.50;;;5.90;;
50681;SDS011;36779;52.168;20.878;2023-04-15T00:34:21;9.40;;;4.80;;
50681;SDS011;36779;52.168;20.878;2023-04-15T00:36:54;10.60;;;5.60;;
50681;SDS011;36779;52.168;20.878;2023-04-15T00:39:26;9.70;;;4.80;;
50681;SDS011;36779;52.168;20.878;2023-04-15T00:41:59;8.90;;;5.80;;
50681;SDS011;36779;52.168;20.878;2023-04-15T00:44:31;9.10;;;5.50;;
50681;SDS011;36779;52.168;20.878;2023-04-15T00:47:04;9.30;;;5.60;;
50681;SDS011;36779;52.168;20.878;2023-04-15T00:49:37;13.20;;;6.20;;
50681;SDS011;36779;52.168;20.878;2023-04-15T00:52:10;9.60;;;5.30;;
50681;SDS011;36779;52.168;20.878;2023-04-15T00:54:42;9.70;;;5.20;;
50681;SDS011;36779;52.168;20.878;2023-04-15T00:57:15;12.60;;;6.00;;
50681;SDS011;36779;52.168;20.878;2023-04-15T00:59:47;10.70;;;5.50;;
50681;SDS011;36779;52.168;20.878;2023-04-15T01:02:21;9.80;;;5.70;;
50681;SDS011;36779;52.168;20.878;2023-04-15T01:04:56;11.20;;;5.90;;
50681;SDS011;36779;52.168;20.878;2023-04-15T01:07:29;15.00;;;5.80;;
50681;SDS011;36779;52.168;20.878;2023-04-15T01:10:01;10.40;;;4.80;;
50681;SDS011;36779;52.168;20.878;2023-04-15T01:12:35;12.10;;;6.20;;
50681;SDS011;36779;52.168;20.878;2023-04-15T01:15:09;10.50;;;5.90;;
50681;SDS011;36779;52.168;20.878;2023-04-15T01:17:41;10.60;;;6.30;;
50681;SDS011;36779;52.168;20.878;2023-04-15T01:20:14;11.30;;;5.60;;
50681;SDS011;36779;52.168;20.878;2023-04-15T01:22:46;9.80;;;5.30;;
50681;SDS011;36779;52.168;20.878;2023-04-15T01:27:57;7.70;;;4.60;;
50681;SDS011;36779;52.168;20.878;2023-04-15T01:30:34;11.00;;;5.60;;
50681;SDS011;36779;52.168;20.878;2023-04-15T01:33:06;10.50;;;5.30;;
50681;SDS011;36779;52.168;20.878;2023-04-15T01:35:39;11.00;;;6.10;;
50681;SDS011;36779;52.168;20.878;2023-04-15T01:38:12;10.50;;;4.90;;
50681;SDS011;36779;52.168;20.878;2023-04-15T01:40:46;10.10;;;6.40;;
50681;SDS011;36779;52.168;20.878;2023-04-15T01:43:18;11.00;;;6.00;;
50681;SDS011;36779;52.168;20.878;2023-04-15T01:45:50;12.00;;;6.90;;
50681;SDS011;36779;52.168;20.878;2023-04-15T01:48:26;12.50;;;6.50;;
50681;SDS011;36779;52.168;20.878;2023-04-15T01:50:58;15.60;;;7.60;;
50681;SDS011;36779;52.168;20.878;2023-04-15T01:53:31;13.10;;;7.10;;
50681;SDS011;36779;52.168;20.878;2023-04-15T01:56:04;11.70;;;6.50;;
50681;SDS011;36779;52.168;20.878;2023-04-15T01:58:37;13.30;;;6.20;;
50681;SDS011;36779;52.168;20.878;2023-04-15T02:01:09;9.70;;;5.50;;
50681;SDS011;36779;52.168;20.878;2023-04-15T02:03:43;10.50;;;5.70;;
50681;SDS011;36779;52.168;20.878;2023-04-15T02:06:16;9.20;;;5.80;;
50681;SDS011;36779;52.168;20.878;2023-04-15T02:08:49;12.60;;;6.90;;
50681;SDS011;36779;52.168;20.878;2023-04-15T02:11:21;13.00;;;7.60;;
50681;SDS011;36779;52.168;20.878;2023-04-15T02:13:54;12.10;;;6.30;;
50681;SDS011;36779;52.168;20.878;2023-04-15T02:16:27;13.50;;;7.50;;
50681;SDS011;36779;52.168;20.878;2023-04-15T02:18:59;13.70;;;7.40;;
50681;SDS011;36779;52.168;20.878;2023-04-15T02:21:32;11.20;;;5.10;;
50681;SDS011;36779;52.168;20.878;2023-04-15T02:24:05;10.30;;;5.40;;
50681;SDS011;36779;52.168;20.878;2023-04-15T02:26:37;8.20;;;5.00;;
50681;SDS011;36779;52.168;20.878;2023-04-15T02:29:10;13.20;;;6.20;;
50681;SDS011;36779;52.168;20.878;2023-04-15T02:31:42;12.30;;;6.40;;
50681;SDS011;36779;52.168;20.878;2023-04-15T02:34:15;17.30;;;7.80;;
50681;SDS011;36779;52.168;20.878;2023-04-15T02:36:47;13.10;;;6.70;;
50681;SDS011;36779;52.168;20.878;2023-04-15T02:39:26;13.70;;;7.60;;
50681;SDS011;36779;52.168;20.878;2023-04-15T02:41:58;13.40;;;7.00;;
50681;SDS011;36779;52.168;20.878;2023-04-15T02:44:31;15.00;;;7.30;;
50681;SDS011;36779;52.168;20.878;2023-04-15T02:47:05;13.30;;;7.90;;
50681;SDS011;36779;52.168;20.878;2023-04-15T02:49:37;14.70;;;7.90;;
50681;SDS011;36779;52.168;20.878;2023-04-15T02:52:09;13.80;;;6.90;;
50681;SDS011;36779;52.168;20.878;2023-04-15T02:54:42;17.20;;;7.90;;
50681;SDS011;36779;52.168;20.878;2023-04-15T02:57:14;14.70;;;7.90;;
50681;SDS011;36779;52.168;20.878;2023-04-15T02:59:46;16.30;;;8.60;;
50681;SDS011;36779;52.168;20.878;2023-04-15T03:05:53;12.20;;;6.30;;
50681;SDS011;36779;52.168;20.878;2023-04-15T03:08:25;12.50;;;6.70;;
50681;SDS011;36779;52.168;20.878;2023-04-15T03:10:58;12.30;;;6.30;;
50681;SDS011;36779;52.168;20.878;2023-04-15T03:13:31;12.00;;;6.70;;
50681;SDS011;36779;52.168;20.878;2023-04-15T03:16:09;13.90;;;6.80;;
50681;SDS011;36779;52.168;20.878;2023-04-15T03:18:43;13.00;;;5.90;;
50681;SDS011;36779;52.168;20.878;2023-04-15T03:21:15;15.60;;;7.30;;
50681;SDS011;36779;52.168;20.878;2023-04-15T03:23:49;15.80;;;7.90;;
50681;SDS011;36779;52.168;20.878;2023-04-15T03:26:25;13.70;;;7.20;;
50681;SDS011;36779;52.168;20.878;2023-04-15T03:29:04;14.60;;;7.80;;
50681;SDS011;36779;52.168;20.878;2023-04-15T03:31:36;14.00;;;7.60;;
50681;SDS011;36779;52.168;20.878;2023-04-15T03:34:08;12.10;;;6.50;;
50681;SDS011;36779;52.168;20.878;2023-04-15T03:36:41;14.30;;;7.20;;
50681;SDS011;36779;52.168;20.878;2023-04-15T03:39:14;12.50;;;6.00;;
50681;SDS011;36779;52.168;20.878;2023-04-15T03:41:46;12.10;;;6.30;;
50681;SDS011;36779;52.168;20.878;2023-04-15T03:44:19;13.00;;;6.50;;
50681;SDS011;36779;52.168;20.878;2023-04-15T03:46:51;17.00;;;7.20;;
50681;SDS011;36779;52.168;20.878;2023-04-15T03:49:27;10.90;;;6.20;;
50681;SDS011;36779;52.168;20.878;2023-04-15T03:51:59;11.80;;;6.20;;
50681;SDS011;36779;52.168;20.878;2023-04-15T03:54:31;13.30;;;7.30;;
50681;SDS011;36779;52.168;20.878;2023-04-15T03:57:03;14.00;;;6.40;;
50681;SDS011;36779;52.168;20.878;2023-04-15T03:59:35;10.50;;;4.80;;
50681;SDS011;36779;52.168;20.878;2023-04-15T04:02:08;11.20;;;6.20;;
50681;SDS011;36779;52.168;20.878;2023-04-15T04:04:40;12.40;;;6.40;;
50681;SDS011;36779;52.168;20.878;2023-04-15T04:07:19;11.50;;;5.70;;
50681;SDS011;36779;52.168;20.878;2023-04-15T04:09:52;11.30;;;6.00;;
50681;SDS011;36779;52.168;20.878;2023-04-15T04:12:25;12.30;;;6.00;;
50681;SDS011;36779;52.168;20.878;2023-04-15T04:14:57;10.80;;;6.80;;
50681;SDS011;36779;52.168;20.878;2023-04-15T04:17:29;12.80;;;7.30;;
50681;SDS011;36779;52.168;20.878;2023-04-15T04:20:01;9.90;;;5.70;;
50681;SDS011;36779;52.168;20.878;2023-04-15T04:22:37;12.20;;;6.40;;
50681;SDS011;36779;52.168;20.878;2023-04-15T04:25:10;11.30;;;6.30;;
50681;SDS011;36779;52.168;20.878;2023-04-15T04:27:42;10.30;;;5.70;;
50681;SDS011;36779;52.168;20.878;2023-04-15T04:30:14;12.60;;;6.90;;
50681;SDS011;36779;52.168;20.878;2023-04-15T04:32:46;12.40;;;6.70;;
50681;SDS011;36779;52.168;20.878;2023-04-15T04:35:20;11.90;;;6.80;;
50681;SDS011;36779;52.168;20.878;2023-04-15T04:37:54;12.20;;;6.70;;
50681;SDS011;36779;52.168;20.878;2023-04-15T04:40:27;11.00;;;6.10;;
50681;SDS011;36779;52.168;20.878;2023-04-15T04:42:59;12.70;;;7.10;;
50681;SDS011;36779;52.168;20.878;2023-04-15T04:45:31;10.30;;;6.10;;
50681;SDS011;36779;52.168;20.878;2023-04-15T04:48:07;14.60;;;7.60;;
50681;SDS011;36779;52.168;20.878;2023-04-15T04:50:39;11.10;;;5.70;;
50681;SDS011;36779;52.168;20.878;2023-04-15T04:53:11;11.50;;;5.90;;
50681;SDS011;36779;52.168;20.878;2023-04-15T04:55:44;13.80;;;7.00;;
50681;SDS011;36779;52.168;20.878;2023-04-15T04:58:16;11.10;;;6.00;;
50681;SDS011;36779;52.168;20.878;2023-04-15T05:00:48;10.80;;;6.40;;
50681;SDS011;36779;52.168;20.878;2023-04-15T05:03:20;12.50;;;6.80;;
50681;SDS011;36779;52.168;20.878;2023-04-15T05:05:53;12.10;;;7.00;;
50681;SDS011;36779;52.168;20.878;2023-04-15T05:08:25;9.20;;;6.10;;
50681;SDS011;36779;52.168;20.878;2023-04-15T05:10:57;7.10;;;4.30;;
50681;SDS011;36779;52.168;20.878;2023-04-15T05:13:31;13.80;;;6.30;;
50681;SDS011;36779;52.168;20.878;2023-04-15T05:16:06;13.30;;;5.70;;
50681;SDS011;36779;52.168;20.878;2023-04-15T05:18:38;12.80;;;7.10;;
50681;SDS011;36779;52.168;20.878;2023-04-15T05:21:11;12.30;;;6.60;;
50681;SDS011;36779;52.168;20.878;2023-04-15T05:23:43;8.60;;;4.20;;
50681;SDS011;36779;52.168;20.878;2023-04-15T05:26:16;11.00;;;5.70;;
50681;SDS011;36779;52.168;20.878;2023-04-15T05:28:49;11.00;;;6.10;;
50681;SDS011;36779;52.168;20.878;2023-04-15T05:31:21;11.40;;;6.10;;
50681;SDS011;36779;52.168;20.878;2023-04-15T05:33:56;13.10;;;5.80;;
50681;SDS011;36779;52.168;20.878;2023-04-15T05:36:28;14.30;;;7.80;;
50681;SDS011;36779;52.168;20.878;2023-04-15T05:39:01;11.60;;;7.00;;
50681;SDS011;36779;52.168;20.878;2023-04-15T05:41:33;12.70;;;5.70;;
50681;SDS011;36779;52.168;20.878;2023-04-15T05:44:06;9.20;;;5.20;;
50681;SDS011;36779;52.168;20.878;2023-04-15T05:46:38;12.30;;;6.40;;
50681;SDS011;36779;52.168;20.878;2023-04-15T05:49:10;10.90;;;6.30;;
50681;SDS011;36779;52.168;20.878;2023-04-15T05:51:42;10.80;;;6.40;;
50681;SDS011;36779;52.168;20.878;2023-04-15T05:54:16;14.10;;;5.90;;
50681;SDS011;36779;52.168;20.878;2023-04-15T05:56:48;11.20;;;6.30;;
50681;SDS011;36779;52.168;20.878;2023-04-15T05:59:20;12.40;;;6.80;;
50681;SDS011;36779;52.168;20.878;2023-04-15T06:01:53;11.20;;;6.00;;
50681;SDS011;36779;52.168;20.878;2023-04-15T06:04:29;12.10;;;6.00;;
50681;SDS011;36779;52.168;20.878;2023-04-15T06:07:01;12.00;;;6.10;;
50681;SDS011;36779;52.168;20.878;2023-04-15T06:09:34;9.50;;;5.50;;
50681;SDS011;36779;52.168;20.878;2023-04-15T06:12:06;11.50;;;5.90;;
50681;SDS011;36779;52.168;20.878;2023-04-15T06:14:40;8.70;;;4.90;;
50681;SDS011;36779;52.168;20.878;2023-04-15T06:17:13;8.80;;;5.30;;
50681;SDS011;36779;52.168;20.878;2023-04-15T06:19:47;10.30;;;4.80;;
50681;SDS011;36779;52.168;20.878;2023-04-15T06:22:23;8.30;;;5.70;;
50681;SDS011;36779;52.168;20.878;2023-04-15T06:24:58;9.60;;;4.90;;
50681;SDS011;36779;52.168;20.878;2023-04-15T06:27:32;9.80;;;5.70;;
50681;SDS011;36779;52.168;20.878;2023-04-15T06:30:05;11.00;;;6.40;;
50681;SDS011;36779;52.168;20.878;2023-04-15T06:32:38;9.10;;;5.20;;
50681;SDS011;36779;52.168;20.878;2023-04-15T06:35:10;12.00;;;6.10;;
50681;SDS011;36779;52.168;20.878;2023-04-15T06:37:43;13.90;;;5.50;;
50681;SDS011;36779;52.168;20.878;2023-04-15T06:40:15;8.70;;;5.00;;
50681;SDS011;36779;52.168;20.878;2023-04-15T06:42:47;10.50;;;5.60;;
50681;SDS011;36779;52.168;20.878;2023-04-15T06:45:19;9.30;;;5.20;;
50681;SDS011;36779;52.168;20.878;2023-04-15T06:47:52;9.00;;;4.00;;
50681;SDS011;36779;52.168;20.878;2023-04-15T06:50:24;7.70;;;4.50;;
50681;SDS011;36779;52.168;20.878;2023-04-15T06:52:56;7.80;;;5.50;;
50681;SDS011;36779;52.168;20.878;2023-04-15T06:55:28;4.90;;;3.30;;
50681;SDS011;36779;52.168;20.878;2023-04-15T06:58:02;11.60;;;6.20;;
50681;SDS011;36779;52.168;20.878;2023-04-15T07:00:34;10.50;;;5.50;;
50681;SDS011;36779;52.168;20.878;2023-04-15T07:03:08;8.10;;;5.10;;
50681;SDS011;36779;52.168;20.878;2023-04-15T07:05:41;7.60;;;4.30;;
50681;SDS011;36779;52.168;20.878;2023-04-15T07:08:14;6.00;;;3.80;;
50681;SDS011;36779;52.168;20.878;2023-04-15T07:10:46;7.40;;;4.50;;
50681;SDS011;36779;52.168;20.878;2023-04-15T07:13:22;7.00;;;4.70;;
50681;SDS011;36779;52.168;20.878;2023-04-15T07:15:55;7.20;;;3.90;;
50681;SDS011;36779;52.168;20.878;2023-04-15T07:18:29;7.60;;;4.30;;
50681;SDS011;36779;52.168;20.878;2023-04-15T07:21:02;6.50;;;4.10;;
50681;SDS011;36779;52.168;20.878;2023-04-15T07:23:34;9.50;;;4.00;;
50681;SDS011;36779;52.168;20.878;2023-04-15T07:26:07;6.20;;;4.10;;
50681;SDS011;36779;52.168;20.878;2023-04-15T07:28:39;6.20;;;3.70;;
50681;SDS011;36779;52.168;20.878;2023-04-15T07:31:12;5.50;;;3.70;;
50681;SDS011;36779;52.168;20.878;2023-04-15T07:33:51;7.70;;;3.90;;
50681;SDS011;36779;52.168;20.878;2023-04-15T07:36:45;4.40;;;2.10;;
50681;SDS011;36779;52.168;20.878;2023-04-15T07:39:23;4.70;;;3.00;;
50681;SDS011;36779;52.168;20.878;2023-04-15T07:41:58;4.60;;;2.80;;
50681;SDS011;36779;52.168;20.878;2023-04-15T07:44:30;4.60;;;2.60;;
50681;SDS011;36779;52.168;20.878;2023-04-15T07:47:02;5.40;;;3.20;;
50681;SDS011;36779;52.168;20.878;2023-04-15T07:49:34;5.10;;;3.10;;
50681;SDS011;36779;52.168;20.878;2023-04-15T07:52:07;6.50;;;4.10;;
50681;SDS011;36779;52.168;20.878;2023-04-15T07:54:39;7.50;;;3.20;;
50681;SDS011;36779;52.168;20.878;2023-04-15T07:57:13;4.50;;;2.70;;
50681;SDS011;36779;52.168;20.878;2023-04-15T07:59:46;4.10;;;2.80;;
50681;SDS011;36779;52.168;20.878;2023-04-15T08:02:19;5.20;;;2.80;;
50681;SDS011;36779;52.168;20.878;2023-04-15T08:04:52;3.10;;;1.70;;
50681;SDS011;36779;52.168;20.878;2023-04-15T08:07:24;6.10;;;3.40;;
50681;SDS011;36779;52.168;20.878;2023-04-15T08:09:56;4.60;;;3.10;;
50681;SDS011;36779;52.168;20.878;2023-04-15T08:12:29;4.60;;;2.90;;
50681;SDS011;36779;52.168;20.878;2023-04-15T08:15:01;5.20;;;3.20;;
50681;SDS011;36779;52.168;20.878;2023-04-15T08:17:36;4.70;;;2.70;;
50681;SDS011;36779;52.168;20.878;2023-04-15T08:20:09;4.90;;;3.00;;
50681;SDS011;36779;52.168;20.878;2023-04-15T08:22:42;3.90;;;2.60;;
50681;SDS011;36779;52.168;20.878;2023-04-15T08:25:15;6.10;;;3.20;;
50681;SDS011;36779;52.168;20.878;2023-04-15T08:27:48;2.90;;;2.00;;
50681;SDS011;36779;52.168;20.878;2023-04-15T08:30:20;3.80;;;2.40;;
50681;SDS011;36779;52.168;20.878;2023-04-15T08:32:54;4.30;;;2.20;;
50681;SDS011;36779;52.168;20.878;2023-04-15T08:35:26;3.90;;;2.20;;
50681;SDS011;36779;52.168;20.878;2023-04-15T08:37:59;4.90;;;2.60;;
50681;SDS011;36779;52.168;20.878;2023-04-15T08:40:44;4.50;;;2.80;;
50681;SDS011;36779;52.168;20.878;2023-04-15T08:43:18;2.90;;;1.80;;
50681;SDS011;36779;52.168;20.878;2023-04-15T08:45:54;4.80;;;2.30;;
50681;SDS011;36779;52.168;20.878;2023-04-15T08:48:32;7.40;;;2.70;;
50681;SDS011;36779;52.168;20.878;2023-04-15T08:51:08;4.30;;;2.60;;
50681;SDS011;36779;52.168;20.878;2023-04-15T08:53:44;4.40;;;2.10;;
50681;SDS011;36779;52.168;20.878;2023-04-15T08:56:17;3.20;;;2.00;;
50681;SDS011;36779;52.168;20.878;2023-04-15T08:58:54;4.00;;;2.60;;
50681;SDS011;36779;52.168;20.878;2023-04-15T09:01:27;2.90;;;2.20;;
50681;SDS011;36779;52.168;20.878;2023-04-15T09:04:00;5.40;;;2.60;;
50681;SDS011;36779;52.168;20.878;2023-04-15T09:06:36;3.60;;;2.30;;
50681;SDS011;36779;52.168;20.878;2023-04-15T09:09:11;3.10;;;1.80;;
50681;SDS011;36779;52.168;20.878;2023-04-15T09:11:46;4.20;;;2.20;;
50681;SDS011;36779;52.168;20.878;2023-04-15T09:14:20;3.70;;;1.90;;
50681;SDS011;36779;52.168;20.878;2023-04-15T09:17:00;4.20;;;2.50;;
50681;SDS011;36779;52.168;20.878;2023-04-15T09:21:39;4.70;;;2.00;;
50681;SDS011;36779;52.168;20.878;2023-04-15T09:24:12;5.30;;;2.30;;
50681;SDS011;36779;52.168;20.878;2023-04-15T09:26:46;4.60;;;2.00;;
50681;SDS011;36779;52.168;20.878;2023-04-15T09:29:22;3.50;;;2.00;;
50681;SDS011;36779;52.168;20.878;2023-04-15T09:32:01;2.90;;;1.90;;
50681;SDS011;36779;52.168;20.878;2023-04-15T09:34:40;3.30;;;1.70;;
50681;SDS011;36779;52.168;20.878;2023-04-15T09:37:14;2.70;;;1.90;;
50681;SDS011;36779;52.168;20.878;2023-04-15T09:40:00;3.40;;;2.00;;
50681;SDS011;36779;52.168;20.878;2023-04-15T09:42:32;4.70;;;1.90;;
50681;SDS011;36779;52.168;20.878;2023-04-15T09:45:10;4.10;;;1.90;;
50681;SDS011;36779;52.168;20.878;2023-04-15T09:47:42;3.20;;;2.10;;
50681;SDS011;36779;52.168;20.878;2023-04-15T09:50:18;4.80;;;1.80;;
50681;SDS011;36779;52.168;20.878;2023-04-15T09:52:50;3.20;;;1.70;;
50681;SDS011;36779;52.168;20.878;2023-04-15T09:55:22;4.20;;;1.90;;
50681;SDS011;36779;52.168;20.878;2023-04-15T09:57:54;2.90;;;1.80;;
50681;SDS011;36779;52.168;20.878;2023-04-15T10:00:26;4.70;;;2.00;;
50681;SDS011;36779;52.168;20.878;2023-04-15T10:03:00;3.30;;;2.10;;
50681;SDS011;36779;52.168;20.878;2023-04-15T10:05:33;3.80;;;2.40;;
50681;SDS011;36779;52.168;20.878;2023-04-15T10:08:06;4.40;;;2.50;;
50681;SDS011;36779;52.168;20.878;2023-04-15T10:10:41;5.50;;;2.00;;
50681;SDS011;36779;52.168;20.878;2023-04-15T10:13:13;4.70;;;2.20;;
50681;SDS011;36779;52.168;20.878;2023-04-15T10:15:51;3.70;;;2.20;;
50681;SDS011;36779;52.168;20.878;2023-04-15T10:18:27;4.40;;;2.20;;
50681;SDS011;36779;52.168;20.878;2023-04-15T10:21:04;3.60;;;2.00;;
50681;SDS011;36779;52.168;20.878;2023-04-15T10:23:38;3.50;;;2.40;;
50681;SDS011;36779;52.168;20.878;2023-04-15T10:26:11;2.80;;;1.80;;
50681;SDS011;36779;52.168;20.878;2023-04-15T10:28:46;4.30;;;2.10;;
50681;SDS011;36779;52.168;20.878;2023-04-15T10:31:18;3.40;;;1.80;;
50681;SDS011;36779;52.168;20.878;2023-04-15T10:33:53;3.00;;;1.90;;
50681;SDS011;36779;52.168;20.878;2023-04-15T10:36:26;4.20;;;1.90;;
50681;SDS011;36779;52.168;20.878;2023-04-15T10:38:58;3.00;;;2.00;;
50681;SDS011;36779;52.168;20.878;2023-04-15T10:41:33;3.40;;;2.10;;
50681;SDS011;36779;52.168;20.878;2023-04-15T10:44:06;4.30;;;2.10;;
50681;SDS011;36779;52.168;20.878;2023-04-15T10:46:39;2.90;;;1.80;;
50681;SDS011;36779;52.168;20.878;2023-04-15T10:49:12;2.60;;;1.70;;
50681;SDS011;36779;52.168;20.878;2023-04-15T10:51:50;6.10;;;2.20;;
50681;SDS011;36779;52.168;20.878;2023-04-15T10:54:36;3.00;;;1.90;;
50681;SDS011;36779;52.168;20.878;2023-04-15T10:57:13;3.50;;;1.80;;
50681;SDS011;36779;52.168;20.878;2023-04-15T11:00:01;4.40;;;2.00;;
50681;SDS011;36779;52.168;20.878;2023-04-15T11:02:44;4.50;;;2.20;;
50681;SDS011;36779;52.168;20.878;2023-04-15T11:05:22;6.90;;;2.50;;
50681;SDS011;36779;52.168;20.878;2023-04-15T11:08:12;6.60;;;3.20;;
50681;SDS011;36779;52.168;20.878;2023-04-15T11:10:53;5.80;;;2.10;;
50681;SDS011;36779;52.168;20.878;2023-04-15T11:13:28;3.70;;;2.40;;
50681;SDS011;36779;52.168;20.878;2023-04-15T11:16:02;5.00;;;2.40;;
50681;SDS011;36779;52.168;20.878;2023-04-15T11:18:35;3.80;;;2.60;;
50681;SDS011;36779;52.168;20.878;2023-04-15T11:21:09;5.50;;;2.90;;
50681;SDS011;36779;52.168;20.878;2023-04-15T11:23:42;3.30;;;2.40;;
50681;SDS011;36779;52.168;20.878;2023-04-15T11:26:15;3.00;;;2.10;;
50681;SDS011;36779;52.168;20.878;2023-04-15T11:28:48;3.00;;;2.20;;
50681;SDS011;36779;52.168;20.878;2023-04-15T11:31:20;2.90;;;2.40;;
50681;SDS011;36779;52.168;20.878;2023-04-15T11:33:56;3.60;;;2.40;;
50681;SDS011;36779;52.168;20.878;2023-04-15T11:36:33;3.70;;;2.20;;
50681;SDS011;36779;52.168;20.878;2023-04-15T11:39:05;5.40;;;2.70;;
50681;SDS011;36779;52.168;20.878;2023-04-15T11:41:39;5.50;;;2.80;;
50681;SDS011;36779;52.168;20.878;2023-04-15T11:44:16;5.10;;;3.20;;
50681;SDS011;36779;52.168;20.878;2023-04-15T11:46:53;5.30;;;3.10;;
50681;SDS011;36779;52.168;20.878;2023-04-15T11:49:33;3.90;;;2.50;;
50681;SDS011;36779;52.168;20.878;2023-04-15T11:52:10;4.10;;;2.70;;
50681;SDS011;36779;52.168;20.878;2023-04-15T11:54:43;3.90;;;2.70;;
50681;SDS011;36779;52.168;20.878;2023-04-15T11:57:16;3.00;;;2.00;;
50681;SDS011;36779;52.168;20.878;2023-04-15T11:59:48;2.20;;;1.60;;
50681;SDS011;36779;52.168;20.878;2023-04-15T12:02:29;3.40;;;2.40;;
50681;SDS011;36779;52.168;20.878;2023-04-15T12:05:07;6.20;;;2.70;;
50681;SDS011;36779;52.168;20.878;2023-04-15T12:07:59;3.70;;;2.10;;
50681;SDS011;36779;52.168;20.878;2023-04-15T12:10:32;5.10;;;2.30;;
50681;SDS011;36779;52.168;20.878;2023-04-15T12:13:06;4.00;;;2.40;;
50681;SDS011;36779;52.168;20.878;2023-04-15T12:15:39;3.30;;;1.80;;
50681;SDS011;36779;52.168;20.878;2023-04-15T12:18:17;3.90;;;2.20;;
50681;SDS011;36779;52.168;20.878;2023-04-15T12:20:54;3.90;;;2.00;;
50681;SDS011;36779;52.168;20.878;2023-04-15T12:23:27;3.50;;;2.10;;
50681;SDS011;36779;52.168;20.878;2023-04-15T12:26:00;3.20;;;2.20;;
50681;SDS011;36779;52.168;20.878;2023-04-15T12:28:37;3.80;;;2.30;;
50681;SDS011;36779;52.168;20.878;2023-04-15T12:31:11;3.80;;;2.60;;
50681;SDS011;36779;52.168;20.878;2023-04-15T12:33:46;3.90;;;2.30;;
50681;SDS011;36779;52.168;20.878;2023-04-15T12:36:19;4.10;;;2.40;;
50681;SDS011;36779;52.168;20.878;2023-04-15T12:38:52;5.40;;;2.40;;
50681;SDS011;36779;52.168;20.878;2023-04-15T12:41:24;3.60;;;2.00;;
50681;SDS011;36779;52.168;20.878;2023-04-15T12:43:56;5.10;;;2.50;;
50681;SDS011;36779;52.168;20.878;2023-04-15T12:46:29;3.30;;;2.20;;
50681;SDS011;36779;52.168;20.878;2023-04-15T12:49:03;2.80;;;2.50;;
50681;SDS011;36779;52.168;20.878;2023-04-15T12:51:35;2.60;;;1.80;;
50681;SDS011;36779;52.168;20.878;2023-04-15T12:54:07;3.20;;;2.20;;
50681;SDS011;36779;52.168;20.878;2023-04-15T12:56:39;4.00;;;2.20;;
50681;SDS011;36779;52.168;20.878;2023-04-15T12:59:12;2.80;;;2.00;;
50681;SDS011;36779;52.168;20.878;2023-04-15T13:01:45;2.20;;;1.80;;
50681;SDS011;36779;52.168;20.878;2023-04-15T13:04:18;3.30;;;2.00;;
50681;SDS011;36779;52.168;20.878;2023-04-15T13:06:50;3.40;;;2.10;;
50681;SDS011;36779;52.168;20.878;2023-04-15T13:09:23;3.90;;;2.30;;
50681;SDS011;36779;52.168;20.878;2023-04-15T13:11:55;4.20;;;2.10;;
50681;SDS011;36779;52.168;20.878;2023-04-15T13:14:28;3.30;;;2.10;;
50681;SDS011;36779;52.168;20.878;2023-04-15T13:17:00;2.20;;;1.60;;
50681;SDS011;36779;52.168;20.878;2023-04-15T13:19:38;1.70;;;1.40;;
50681;SDS011;36779;52.168;20.878;2023-04-15T13:22:10;2.10;;;1.20;;
50681;SDS011;36779;52.168;20.878;2023-04-15T13:24:43;1.90;;;1.00;;
50681;SDS011;36779;52.168;20.878;2023-04-15T13:27:17;2.10;;;1.30;;
50681;SDS011;36779;52.168;20.878;2023-04-15T13:29:49;3.10;;;1.40;;
50681;SDS011;36779;52.168;20.878;2023-04-15T13:32:21;1.60;;;1.10;;
50681;SDS011;36779;52.168;20.878;2023-04-15T13:34:55;2.70;;;1.70;;
50681;SDS011;36779;52.168;20.878;2023-04-15T13:37:28;2.60;;;1.40;;
50681;SDS011;36779;52.168;20.878;2023-04-15T13:40:00;2.50;;;1.30;;
50681;SDS011;36779;52.168;20.878;2023-04-15T13:42:35;2.00;;;1.10;;
50681;SDS011;36779;52.168;20.878;2023-04-15T13:45:08;1.90;;;1.10;;
50681;SDS011;36779;52.168;20.878;2023-04-15T13:47:40;2.00;;;1.20;;
50681;SDS011;36779;52.168;20.878;2023-04-15T13:50:13;3.20;;;1.40;;
50681;SDS011;36779;52.168;20.878;2023-04-15T13:52:45;1.60;;;1.10;;
50681;SDS011;36779;52.168;20.878;2023-04-15T13:55:17;2.70;;;1.20;;
50681;SDS011;36779;52.168;20.878;2023-04-15T13:57:54;2.10;;;1.00;;
50681;SDS011;36779;52.168;20.878;2023-04-15T14:00:27;3.10;;;1.20;;
50681;SDS011;36779;52.168;20.878;2023-04-15T14:02:59;3.20;;;1.20;;
50681;SDS011;36779;52.168;20.878;2023-04-15T14:05:33;2.00;;;1.10;;
50681;SDS011;36779;52.168;20.878;2023-04-15T14:08:05;2.00;;;1.20;;
50681;SDS011;36779;52.168;20.878;2023-04-15T14:10:38;2.80;;;1.10;;
50681;SDS011;36779;52.168;20.878;2023-04-15T14:13:12;1.80;;;1.20;;
50681;SDS011;36779;52.168;20.878;2023-04-15T14:15:44;1.90;;;1.20;;
50681;SDS011;36779;52.168;20.878;2023-04-15T14:18:17;2.30;;;1.30;;
50681;SDS011;36779;52.168;20.878;2023-04-15T14:20:49;2.70;;;1.40;;
50681;SDS011;36779;52.168;20.878;2023-04-15T14:23:21;3.50;;;1.60;;
50681;SDS011;36779;52.168;20.878;2023-04-15T14:25:54;2.90;;;1.50;;
50681;SDS011;36779;52.168;20.878;2023-04-15T14:28:27;2.60;;;1.40;;
50681;SDS011;36779;52.168;20.878;2023-04-15T14:31:00;1.90;;;1.10;;
50681;SDS011;36779;52.168;20.878;2023-04-15T14:33:33;2.00;;;1.20;;
50681;SDS011;36779;52.168;20.878;2023-04-15T14:36:05;2.20;;;1.30;;
50681;SDS011;36779;52.168;20.878;2023-04-15T14:38:38;4.00;;;1.70;;
50681;SDS011;36779;52.168;20.878;2023-04-15T14:41:11;2.60;;;1.60;;
50681;SDS011;36779;52.168;20.878;2023-04-15T14:43:43;2.70;;;1.20;;
50681;SDS011;36779;52.168;20.878;2023-04-15T14:46:15;1.60;;;1.10;;
50681;SDS011;36779;52.168;20.878;2023-04-15T14:48:48;2.30;;;1.30;;
50681;SDS011;36779;52.168;20.878;2023-04-15T14:51:22;2.50;;;1.10;;
50681;SDS011;36779;52.168;20.878;2023-04-15T14:53:55;2.10;;;1.30;;
50681;SDS011;36779;52.168;20.878;2023-04-15T14:56:27;2.60;;;1.30;;
50681;SDS011;36779;52.168;20.878;2023-04-15T14:59:00;2.10;;;1.20;;
50681;SDS011;36779;52.168;20.878;2023-04-15T15:01:33;3.40;;;1.30;;
50681;SDS011;36779;52.168;20.878;2023-04-15T15:04:05;4.20;;;1.30;;
50681;SDS011;36779;52.168;20.878;2023-04-15T15:06:40;1.60;;;1.10;;
50681;SDS011;36779;52.168;20.878;2023-04-15T15:09:14;1.60;;;1.10;;
50681;SDS011;36779;52.168;20.878;2023-04-15T15:11:52;1.50;;;1.30;;
50681;SDS011;36779;52.168;20.878;2023-04-15T15:14:30;1.90;;;1.10;;
50681;SDS011;36779;52.168;20.878;2023-04-15T15:17:03;1.80;;;1.00;;